Time;durP1;ratioP1;P1;durP2;ratioP2;P2;SDS_P1;SDS_P2;PMS_P1;PMS_P2;Temp;Humidity;BMP_temperature;BMP_pressure;BME280_temperature;BME280_humidity;BME280_pressure;Samples;Min_cycle;Max_cycle;Signal;HPM_P1;HPM_P2
2023/01/20 00:02:16;;;;;;;6.93;5.03;;;;;;;-2.43;100.00;60274.75;6245009;28;20664;-43
2023/01/20 00:05:19;;;;;;;7.77;5.10;;;;;;;-2.64;100.00;60274.75;6246960;28;20591;-44
2023/01/20 00:08:21;;;;;;;6.67;4.87;;;;;;;-2.69;100.00;60274.75;6243831;28;20222;-44
2023/01/20 00:11:23;;;;;;;6.63;5.03;;;;;;;-1.61;100.00;60274.75;6250447;28;20230;-44
2023/01/20 00:14:26;;;;;;;7.40;5.17;;;;;;;-2.82;100.00;60274.75;6242799;28;20242;-45
2023/01/20 00:17:28;;;;;;;6.33;4.90;;;;;;;-2.59;100.00;60274.75;6244652;28;20276;-44
2023/01/20 00:20:31;;;;;;;7.13;5.13;;;;;;;-2.26;100.00;60274.75;6245519;28;20427;-43
2023/01/20 00:23:33;;;;;;;8.17;4.90;;;;;;;-144.22;100.00;60274.75;6247278;28;20583;-43
2023/01/20 00:26:36;;;;;;;9.50;5.30;;;;;;;-144.22;100.00;60274.75;6242216;28;20454;-43
2023/01/20 00:29:38;;;;;;;8.00;4.80;;;;;;;-144.22;100.00;60274.75;6244319;28;20282;-43
2023/01/20 00:32:44;;;;;;;6.07;4.47;;;;;;;-144.22;100.00;60274.75;6244659;28;20304;-44
2023/01/20 00:35:46;;;;;;;5.57;4.47;;;;;;;-144.22;100.00;60274.75;6244545;28;20249;-43
2023/01/20 00:38:49;;;;;;;6.37;4.27;;;;;;;-144.22;100.00;60274.75;6246383;28;20238;-44
2023/01/20 00:41:51;;;;;;;6.77;4.20;;;;;;;21.74;100.00;60274.75;6245015;28;20230;-44
2023/01/20 00:44:53;;;;;;;5.20;4.17;;;;;;;-144.22;100.00;60274.75;6244023;28;20237;-44
2023/01/20 00:47:56;;;;;;;6.13;4.73;;;;;;;-144.22;100.00;60274.75;6245123;28;20592;-43
2023/01/20 00:51:01;;;;;;;5.30;4.23;;;;;;;-144.22;100.00;60274.75;6244976;28;20234;-43
2023/01/20 00:54:03;;;;;;;6.23;3.77;;;;;;;-144.22;100.00;60274.75;6244900;28;20235;-44
2023/01/20 00:57:05;;;;;;;7.87;4.77;;;;;;;188.01;100.00;60274.75;6246133;28;20633;-43
2023/01/20 01:00:09;;;;;;;8.17;4.50;;;;;;;-144.22;100.00;60274.75;6242740;28;20253;-44
2023/01/20 01:03:11;;;;;;;5.30;3.50;;;;;;;-144.22;100.00;60274.75;6209013;28;20846;-43
2023/01/20 01:06:16;;;;;;;6.80;4.40;;;;;;;-144.22;100.00;60274.75;6228977;28;20592;-44
2023/01/20 01:09:20;;;;;;;5.67;4.10;;;;;;;-144.22;100.00;60274.75;6247550;28;20225;-43
2023/01/20 01:12:23;;;;;;;6.80;3.93;;;;;;;-144.22;100.00;60274.75;6241911;28;20671;-43
2023/01/20 01:15:26;;;;;;;8.47;5.10;;;;;;;-144.22;100.00;60274.75;6243481;28;20307;-43
2023/01/20 01:18:28;;;;;;;5.43;3.97;;;;;;;-1.61;100.00;60274.75;6244708;28;20428;-43
2023/01/20 01:21:31;;;;;;;6.43;3.93;;;;;;;-144.22;100.00;60274.75;6248012;28;20755;-43
2023/01/20 01:24:33;;;;;;;8.33;5.70;;;;;;;-2.91;100.00;60274.75;6244137;28;20325;-43
2023/01/20 01:27:36;;;;;;;9.67;5.47;;;;;;;-144.22;100.00;60274.75;6247424;28;20230;-44
2023/01/20 01:30:38;;;;;;;17.37;9.93;;;;;;;-144.22;100.00;60274.75;6246168;28;20736;-44
2023/01/20 01:33:40;;;;;;;15.90;8.73;;;;;;;-3.86;100.00;60274.75;6244574;28;20226;-43
2023/01/20 01:36:43;;;;;;;13.50;6.87;;;;;;;-144.22;100.00;60274.75;6243888;28;20235;-44
2023/01/20 01:39:45;;;;;;;9.87;6.93;;;;;;;-144.22;100.00;60274.75;6247403;28;20381;-43
2023/01/20 01:42:48;;;;;;;7.90;6.17;;;;;;;-4.04;100.00;60274.75;6244403;28;20310;-43
2023/01/20 01:45:50;;;;;;;9.97;5.33;;;;;;;-144.22;100.00;60274.75;6245864;28;20230;-43
2023/01/20 01:48:53;;;;;;;8.47;5.40;;;;;;;-144.22;100.00;60274.75;6246018;28;20734;-43
2023/01/20 01:52:02;;;;;;;9.43;5.63;;;;;;;-144.22;100.00;60274.75;6225934;28;20667;-43
2023/01/20 01:55:04;;;;;;;8.27;5.07;;;;;;;-144.22;100.00;60274.75;6248171;28;20325;-43
2023/01/20 01:58:10;;;;;;;6.87;4.43;;;;;;;-144.22;100.00;60274.75;6230360;28;20291;-43
2023/01/20 02:01:13;;;;;;;6.30;5.07;;;;;;;-144.22;100.00;60274.75;6244956;28;20617;-43
2023/01/20 02:04:20;;;;;;;8.17;5.43;;;;;;;-144.22;100.00;60274.75;6246345;28;20281;-43
2023/01/20 02:07:23;;;;;;;8.97;5.67;;;;;;;-144.22;100.00;60274.75;6241929;28;20235;-43
2023/01/20 02:10:26;;;;;;;6.43;4.80;;;;;;;-144.22;100.00;60274.75;6246441;28;20237;-44
2023/01/20 02:13:28;;;;;;;7.20;4.93;;;;;;;-144.22;100.00;60274.75;6242937;28;20364;-43
2023/01/20 02:16:57;;;;;;;6.80;4.57;;;;;;;-144.22;100.00;60274.75;6245678;28;20237;-43
2023/01/20 02:20:04;;;;;;;12.40;6.10;;;;;;;-144.22;100.00;60274.75;6241647;28;20249;-43
2023/01/20 02:23:44;;;;;;;6.93;4.93;;;;;;;-144.22;100.00;60274.75;6239324;28;20344;-44
2023/01/20 02:27:01;;;;;;;8.43;5.20;;;;;;;-144.22;100.00;60274.75;6241141;28;20238;-43
2023/01/20 02:30:06;;;;;;;7.00;5.10;;;;;;;-144.22;100.00;60274.75;6239797;28;20624;-44
2023/01/20 02:33:17;;;;;;;7.33;5.13;;;;;;;-144.22;100.00;60274.75;6243475;28;20401;-44
2023/01/20 02:36:37;;;;;;;9.03;5.47;;;;;;;-144.22;100.00;60274.75;6239404;28;20526;-44
2023/01/20 02:39:58;;;;;;;9.63;5.70;;;;;;;-144.22;100.00;60274.75;6245209;28;20242;-44
2023/01/20 02:43:15;;;;;;;8.37;6.07;;;;;;;-144.22;100.00;60274.75;6243862;28;20533;-43
2023/01/20 02:46:31;;;;;;;8.70;5.53;;;;;;;-144.22;100.00;60274.75;6239853;28;20241;-43
2023/01/20 02:49:40;;;;;;;8.37;5.13;;;;;;;-144.22;100.00;60274.75;6239862;28;20312;-43
2023/01/20 02:52:51;;;;;;;8.73;6.07;;;;;;;-144.22;100.00;60274.75;6243098;28;20238;-43
2023/01/20 02:55:54;;;;;;;8.47;5.93;;;;;;;-144.22;100.00;60274.75;6240946;28;20235;-43
2023/01/20 02:59:07;;;;;;;8.00;5.50;;;;;;;-144.22;100.00;60274.75;6243763;28;20242;-44
2023/01/20 03:02:14;;;;;;;8.07;5.57;;;;;;;-4.48;100.00;60274.75;6243797;28;20531;-43
2023/01/20 03:05:21;;;;;;;8.27;5.67;;;;;;;-144.22;100.00;60274.75;6237030;28;20219;-45
2023/01/20 03:08:28;;;;;;;8.33;5.43;;;;;;;-4.51;100.00;60274.75;6225203;28;20288;-44
2023/01/20 03:11:35;;;;;;;9.10;5.30;;;;;;;-144.22;100.00;60274.75;6244972;28;20729;-43
2023/01/20 03:14:37;;;;;;;6.90;4.73;;;;;;;-144.22;100.00;60274.75;6236562;28;20392;-43
2023/01/20 03:17:40;;;;;;;7.57;5.53;;;;;;;-144.22;100.00;60274.75;6242361;28;20907;-43
2023/01/20 03:20:42;;;;;;;8.63;5.53;;;;;;;-144.22;100.00;60274.75;6244880;28;20238;-43
2023/01/20 03:23:51;;;;;;;7.00;5.43;;;;;;;-144.22;100.00;60274.75;6246799;28;20214;-43
2023/01/20 03:26:53;;;;;;;8.23;5.73;;;;;;;-144.22;100.00;60274.75;6243987;28;20825;-44
2023/01/20 03:29:55;;;;;;;7.97;6.03;;;;;;;-144.22;100.00;60274.75;6250553;28;20280;-43
2023/01/20 03:32:58;;;;;;;8.80;6.13;;;;;;;-144.22;100.00;60274.75;6245826;28;20226;-45
2023/01/20 03:36:01;;;;;;;10.23;5.57;;;;;;;-4.74;100.00;60274.75;6244724;28;20261;-43
2023/01/20 03:39:04;;;;;;;7.63;5.60;;;;;;;-144.22;100.00;60274.75;6247009;28;20222;-44
2023/01/20 03:42:15;;;;;;;7.80;5.40;;;;;;;-4.84;100.00;60274.75;6246178;28;20276;-43
2023/01/20 03:45:26;;;;;;;9.40;5.47;;;;;;;-4.85;100.00;60274.75;6244237;28;20326;-43
2023/01/20 03:48:35;;;;;;;8.97;5.60;;;;;;;-144.22;100.00;60274.75;6231828;28;20285;-43
2023/01/20 03:51:59;;;;;;;6.70;4.97;;;;;;;-4.21;100.00;60274.75;6228656;28;20320;-44
2023/01/20 03:55:20;;;;;;;8.47;5.40;;;;;;;-144.22;100.00;60274.75;6227597;28;20326;-43
2023/01/20 03:58:34;;;;;;;9.23;5.60;;;;;;;-144.22;100.00;60274.75;6247648;28;20326;-45
2023/01/20 04:01:40;;;;;;;10.17;5.50;;;;;;;-144.22;100.00;60274.75;6232673;28;20875;-43
2023/01/20 04:04:56;;;;;;;9.10;5.87;;;;;;;-144.22;100.00;60274.75;6249992;28;20320;-44
2023/01/20 04:08:12;;;;;;;8.70;6.10;;;;;;;-144.22;100.00;60274.75;6246332;28;20265;-43
2023/01/20 04:11:17;;;;;;;9.07;6.20;;;;;;;-144.22;100.00;60274.75;6249428;28;20281;-44
2023/01/20 04:14:19;;;;;;;9.40;5.83;;;;;;;-144.22;100.00;60274.75;6228158;28;20321;-43
2023/01/20 04:17:27;;;;;;;8.20;5.83;;;;;;;-144.22;100.00;60274.75;6249081;28;20323;-43
2023/01/20 04:20:29;;;;;;;10.47;6.10;;;;;;;-144.22;100.00;60274.75;6247794;28;20310;-43
2023/01/20 04:23:41;;;;;;;9.30;6.30;;;;;;;-144.22;100.00;60274.75;6247095;28;20300;-43
2023/01/20 04:26:43;;;;;;;8.73;5.23;;;;;;;-144.22;100.00;60274.75;6241768;28;20319;-43
2023/01/20 04:29:46;;;;;;;7.13;5.27;;;;;;;-144.22;100.00;60274.75;6247292;28;20819;-43
2023/01/20 04:32:51;;;;;;;8.47;5.43;;;;;;;-144.22;100.00;60274.75;6246331;28;20258;-43
2023/01/20 04:35:53;;;;;;;10.93;6.03;;;;;;;-144.22;100.00;60274.75;6247095;28;20461;-44
2023/01/20 04:38:56;;;;;;;9.10;6.40;;;;;;;-144.22;100.00;60274.75;6249700;28;20823;-43
2023/01/20 04:41:58;;;;;;;10.13;6.17;;;;;;;-144.22;100.00;60274.75;6246998;28;20416;-44
2023/01/20 04:45:00;;;;;;;10.97;6.30;;;;;;;-144.22;100.00;60274.75;6247827;28;20245;-44
2023/01/20 04:48:07;;;;;;;7.20;5.43;;;;;;;-5.12;100.00;60274.75;6246262;28;20261;-43
2023/01/20 04:51:09;;;;;;;9.60;6.20;;;;;;;-5.14;100.00;60274.75;6245375;28;20242;-43
2023/01/20 04:54:11;;;;;;;9.17;6.27;;;;;;;-144.22;100.00;60274.75;6230257;28;20537;-45
2023/01/20 04:57:13;;;;;;;9.57;6.10;;;;;;;-144.22;100.00;60274.75;6246144;28;20283;-44
2023/01/20 05:00:18;;;;;;;9.60;6.20;;;;;;;-144.22;100.00;60274.75;6245427;28;20215;-43
2023/01/20 05:03:21;;;;;;;8.57;5.33;;;;;;;-144.22;100.00;60274.75;6244747;28;20226;-43
2023/01/20 05:06:23;;;;;;;11.97;6.47;;;;;;;-144.22;100.00;60274.75;6248215;28;20780;-43
2023/01/20 05:09:25;;;;;;;9.57;6.67;;;;;;;-144.22;100.00;60274.75;6248101;28;20226;-43
2023/01/20 05:12:27;;;;;;;8.20;6.40;;;;;;;-5.24;100.00;60274.75;6244544;28;20303;-43
2023/01/20 05:15:29;;;;;;;10.90;6.60;;;;;;;-5.27;100.00;80674.06;6245202;28;20523;-43
2023/01/20 05:18:32;;;;;;;9.00;6.07;;;;;;;-5.31;nan;97169.91;6244725;28;20268;-43
2023/01/20 05:21:35;;;;;;;9.77;6.47;;;;;;;-5.28;nan;97164.66;6246780;28;20231;-43
2023/01/20 05:24:37;;;;;;;10.90;7.00;;;;;;;-5.27;nan;97163.78;6242085;28;20706;-44
2023/01/20 05:27:39;;;;;;;11.70;6.60;;;;;;;-5.24;nan;97171.41;6244055;28;20621;-43
2023/01/20 05:30:41;;;;;;;10.20;6.77;;;;;;;-5.22;nan;97173.97;6244268;28;20229;-43
2023/01/20 05:33:44;;;;;;;12.00;7.67;;;;;;;-5.20;nan;97172.19;6244974;28;20631;-43
2023/01/20 05:36:51;;;;;;;9.00;6.50;;;;;;;-5.23;nan;97170.53;6242807;28;20341;-43
2023/01/20 05:39:53;;;;;;;13.07;8.00;;;;;;;-5.22;nan;97179.94;6240889;28;20235;-43
2023/01/20 05:42:59;;;;;;;9.93;6.47;;;;;;;-5.20;nan;97174.78;6243786;28;20676;-43
2023/01/20 05:46:02;;;;;;;9.13;5.90;;;;;;;-5.20;nan;97174.78;6225071;28;20227;-43
2023/01/20 05:49:05;;;;;;;10.00;6.37;;;;;;;-5.17;nan;97178.97;6244989;28;20235;-43
2023/01/20 05:52:07;;;;;;;11.87;6.83;;;;;;;-5.19;nan;97179.03;6243608;28;20428;-43
2023/01/20 05:55:09;;;;;;;8.43;6.10;;;;;;;-5.19;nan;97179.03;6242402;28;20605;-44
2023/01/20 05:58:11;;;;;;;11.60;6.77;;;;;;;-5.16;nan;97172.94;6245640;28;20473;-43
2023/01/20 06:01:14;;;;;;;10.97;6.93;;;;;;;-5.14;nan;97166.03;6246841;28;20351;-43
2023/01/20 06:07:49;;;;;;;11.47;6.97;;;;;;;-5.05;nan;97166.63;4679788;22;20718;-64
2023/01/20 06:10:52;;;;;;;14.23;7.03;;;;;;;-4.92;nan;97159.44;6220939;28;20236;-65
2023/01/20 06:13:55;;;;;;;8.93;6.47;;;;;;;-4.80;nan;97158.25;6226618;28;20260;-64
2023/01/20 06:17:00;;;;;;;11.60;7.00;;;;;;;-4.71;nan;97160.56;6222041;28;20330;-64
2023/01/20 06:20:04;;;;;;;11.23;7.97;;;;;;;-4.47;nan;97159.84;6224153;28;20336;-64
2023/01/20 06:23:08;;;;;;;11.80;7.80;;;;;;;-4.27;nan;97148.94;6225683;28;20347;-64
2023/01/20 06:26:11;;;;;;;11.33;7.03;;;;;;;-4.15;nan;97158.88;6227257;28;20277;-64
2023/01/20 06:29:14;;;;;;;11.10;8.27;;;;;;;-4.07;nan;97159.47;6219306;28;20239;-65
2023/01/20 06:32:19;;;;;;;15.10;8.30;;;;;;;-3.93;nan;97157.31;6222643;28;20832;-64
2023/01/20 06:35:27;;;;;;;14.13;7.50;;;;;;;-3.76;nan;97152.47;6221850;28;20589;-64
2023/01/20 06:38:31;;;;;;;12.73;8.47;;;;;;;-3.67;nan;97158.22;6211196;28;20243;-62
2023/01/20 06:41:36;;;;;;;13.03;8.00;;;;;;;-3.56;nan;97148.41;6224049;28;20701;-64
2023/01/20 06:44:38;;;;;;;11.50;7.13;;;;;;;-3.47;nan;97141.19;6229372;28;20216;-63
2023/01/20 06:47:41;;;;;;;11.03;6.93;;;;;;;-3.33;nan;97145.06;6229643;28;20464;-64
2023/01/20 06:50:45;;;;;;;11.93;7.20;;;;;;;-3.25;nan;97138.72;6228194;28;20235;-62
2023/01/20 06:53:48;;;;;;;12.07;6.80;;;;;;;-3.28;nan;97149.16;6228064;28;20223;-62
2023/01/20 06:56:50;;;;;;;8.70;6.70;;;;;;;-3.27;nan;97150.84;6226965;28;20232;-63
2023/01/20 06:59:53;;;;;;;13.23;7.00;;;;;;;-3.13;nan;97163.28;6225652;28;20326;-62
2023/01/20 07:02:55;;;;;;;9.10;6.70;;;;;;;-2.99;nan;97155.88;6226789;28;20247;-62
2023/01/20 07:06:03;;;;;;;10.40;7.17;;;;;;;-2.87;nan;97152.03;6233302;28;20544;-63
2023/01/20 07:09:09;;;;;;;8.03;6.33;;;;;;;-2.84;nan;97152.78;6240861;28;20265;-63
2023/01/20 07:12:12;;;;;;;8.83;6.73;;;;;;;-2.74;nan;97142.94;6220753;28;20609;-63
2023/01/20 07:15:14;;;;;;;9.50;6.60;;;;;;;-2.70;nan;97136.78;6241127;28;20242;-62
2023/01/20 07:18:17;;;;;;;11.23;6.43;;;;;;;-2.57;nan;97132.00;6231557;28;20589;-63
2023/01/20 07:21:19;;;;;;;10.63;6.73;;;;;;;-2.52;nan;97141.28;6237758;28;20563;-62
2023/01/20 07:24:22;;;;;;;10.20;6.77;;;;;;;-2.55;nan;97153.44;6217802;28;20234;-63
2023/01/20 07:27:24;;;;;;;8.20;5.97;;;;;;;-2.52;nan;97148.19;6221558;28;20900;-62
2023/01/20 07:30:27;;;;;;;8.87;6.60;;;;;;;-2.49;nan;97148.03;6239217;28;20231;-62
2023/01/20 07:33:30;;;;;;;12.30;6.60;;;;;;;-2.52;nan;97148.19;6233566;28;20593;-62
2023/01/20 07:36:32;;;;;;;9.23;6.80;;;;;;;-2.50;nan;97148.97;6235569;28;20742;-62
2023/01/20 07:39:35;;;;;;;10.07;7.07;;;;;;;-2.50;nan;97149.81;6232024;28;20239;-62
2023/01/20 07:42:41;;;;;;;8.33;6.07;;;;;;;-2.46;nan;97153.94;6238808;28;20231;-62
2023/01/20 07:45:43;;;;;;;10.37;6.80;;;;;;;-2.41;nan;97154.63;6237885;28;20238;-63
2023/01/20 07:48:46;;;;;;;8.77;6.23;;;;;;;-2.44;nan;97159.06;6239314;28;20706;-62
2023/01/20 07:51:48;;;;;;;10.73;6.50;;;;;;;-2.42;nan;97163.28;6235933;28;20235;-62
2023/01/20 07:54:50;;;;;;;10.57;6.37;;;;;;;-2.39;nan;97170.06;6239808;28;20243;-63
2023/01/20 07:57:52;;;;;;;8.57;5.97;;;;;;;-2.40;nan;97192.50;6237550;28;20239;-63
2023/01/20 08:00:55;;;;;;;10.07;6.53;;;;;;;-2.39;nan;97199.31;6237906;28;20234;-63
2023/01/20 08:04:01;;;;;;;8.63;6.40;;;;;;;-2.36;nan;97200.94;6236408;28;20277;-63
2023/01/20 08:07:03;;;;;;;8.93;6.57;;;;;;;-2.31;nan;97202.47;6234054;28;20301;-63
2023/01/20 08:10:08;;;;;;;10.00;6.97;;;;;;;-2.26;nan;97200.56;6225450;28;20235;-62
2023/01/20 08:13:10;;;;;;;11.63;7.10;;;;;;;-2.20;nan;97209.00;6236728;28;20236;-63
2023/01/20 08:16:15;;;;;;;11.60;8.00;;;;;;;-2.12;nan;97214.72;6242168;28;20721;-64
2023/01/20 08:19:18;;;;;;;12.17;7.63;;;;;;;-2.04;nan;97221.28;6239205;28;20234;-63
2023/01/20 08:22:24;;;;;;;8.63;6.20;;;;;;;-1.97;nan;97227.03;6243646;28;20324;-63
2023/01/20 08:25:26;;;;;;;7.87;6.33;;;;;;;-1.93;nan;97219.13;6243974;28;20568;-63
2023/01/20 08:28:30;;;;;;;11.20;6.90;;;;;;;-1.84;nan;97222.25;6219463;28;20234;-63
2023/01/20 08:31:32;;;;;;;8.47;6.23;;;;;;;-1.79;nan;97218.59;6242387;28;20224;-63
2023/01/20 08:34:34;;;;;;;10.40;6.80;;;;;;;-1.72;nan;97230.41;6224751;28;20227;-63
2023/01/20 08:37:37;;;;;;;10.27;6.67;;;;;;;-1.63;nan;97224.88;6241121;28;20638;-63
2023/01/20 08:40:41;;;;;;;7.43;5.73;;;;;;;-1.55;nan;97237.47;6222781;28;20242;-65
2023/01/20 08:43:43;;;;;;;8.97;6.37;;;;;;;-1.48;nan;97234.59;6243315;28;20231;-63
2023/01/20 08:46:46;;;;;;;10.30;7.23;;;;;;;-1.45;nan;97249.16;6236141;28;20609;-63
2023/01/20 08:49:52;;;;;;;10.10;6.67;;;;;;;-1.39;nan;97250.66;6243639;28;20231;-62
2023/01/20 08:52:54;;;;;;;10.90;7.70;;;;;;;-1.32;nan;97250.38;6240257;28;20231;-63
2023/01/20 08:55:58;;;;;;;8.83;6.87;;;;;;;-1.27;nan;97257.94;6223818;28;20231;-63
2023/01/20 08:59:02;;;;;;;9.73;7.10;;;;;;;-1.23;nan;97265.53;6246143;28;20231;-64
2023/01/20 09:02:04;;;;;;;9.87;6.97;;;;;;;-1.15;nan;97266.06;6236908;28;20325;-63
2023/01/20 09:05:07;;;;;;;9.93;6.67;;;;;;;-1.08;nan;97276.16;6223078;28;20242;-62
2023/01/20 09:08:10;;;;;;;9.90;5.97;;;;;;;-0.99;nan;97275.78;6199540;28;20247;-63
2023/01/20 09:11:15;;;;;;;7.77;6.20;;;;;;;-0.93;nan;97265.19;6216844;28;20255;-62
2023/01/20 09:14:22;;;;;;;11.97;6.93;;;;;;;-0.85;nan;97263.94;6208529;28;20326;-63
2023/01/20 09:17:24;;;;;;;8.97;6.47;;;;;;;-0.75;nan;97272.19;6217846;28;20691;-63
2023/01/20 09:20:29;;;;;;;8.73;6.30;;;;;;;-0.63;nan;97266.47;6214661;28;20242;-63
2023/01/20 09:23:33;;;;;;;9.67;6.63;;;;;;;-0.57;nan;97267.97;6211818;28;20724;-63
2023/01/20 09:26:38;;;;;;;9.07;5.77;;;;;;;-0.46;nan;97257.97;6210246;28;20232;-62
2023/01/20 09:29:40;;;;;;;8.13;6.20;;;;;;;-0.38;nan;97263.66;6218871;28;20236;-62
2023/01/20 09:32:43;;;;;;;9.07;6.67;;;;;;;-0.45;nan;97254.47;6216463;28;20242;-63
2023/01/20 09:35:53;;;;;;;9.07;6.23;;;;;;;-0.42;nan;97257.78;6217047;28;20257;-63
2023/01/20 09:46:20;;;;;;;8.97;6.43;;;;;;;-0.32;nan;97249.63;6214050;28;20262;-62
2023/01/20 09:53:49;;;;;;;9.87;6.47;;;;;;;-0.08;nan;97262.31;6215881;28;20228;-66
2023/01/20 09:56:56;;;;;;;10.83;7.43;;;;;;;0.03;nan;97264.44;6212292;28;20251;-63
2023/01/20 10:00:10;;;;;;;11.77;6.83;;;;;;;0.02;nan;97261.91;6214941;28;20250;-62
2023/01/20 10:03:23;;;;;;;10.87;7.03;;;;;;;-0.08;nan;97261.47;6209432;28;20233;-63
2023/01/20 10:06:39;;;;;;;9.47;6.60;;;;;;;-0.04;nan;97245.72;6218451;28;20624;-62
2023/01/20 10:09:49;;;;;;;10.53;6.70;;;;;;;0.04;nan;97232.41;6237837;28;20594;-63
2023/01/20 10:13:19;;;;;;;9.27;6.97;;;;;;;0.04;nan;97236.75;6237082;28;20234;-63
2023/01/20 10:17:11;;;;;;;9.07;5.40;;;;;;;0.01;nan;97237.72;6237363;28;20242;-62
2023/01/20 10:20:32;;;;;;;7.73;5.90;;;;;;;-0.08;nan;97233.78;6202404;28;20639;-63
2023/01/20 10:23:44;;;;;;;7.70;6.10;;;;;;;-0.08;nan;97230.34;6240675;28;20236;-62
2023/01/20 10:26:59;;;;;;;10.73;6.30;;;;;;;0.06;nan;97233.16;6223505;28;20227;-62
2023/01/20 10:30:15;;;;;;;9.67;6.70;;;;;;;0.18;nan;97234.38;6235729;28;20634;-62
2023/01/20 10:33:40;;;;;;;7.10;6.13;;;;;;;0.41;nan;97246.25;6236754;28;20231;-62
2023/01/20 10:36:49;;;;;;;9.10;6.37;;;;;;;0.48;nan;97243.31;6243398;28;20228;-62
2023/01/20 10:40:33;;;;;;;8.80;6.50;;;;;;;0.46;nan;97242.53;6239910;28;20264;-62
2023/01/20 10:43:36;;;;;;;7.73;5.77;;;;;;;0.55;nan;97249.91;6221841;28;20227;-62
2023/01/20 10:46:52;;;;;;;8.10;5.80;;;;;;;0.74;nan;97242.91;6221366;28;20855;-63
2023/01/20 10:50:17;;;;;;;8.10;5.37;;;;;;;0.70;nan;97241.34;6240151;28;20224;-62
2023/01/20 10:53:32;;;;;;;11.07;5.73;;;;;;;0.76;nan;97240.25;6234151;28;20217;-63
2023/01/20 10:56:50;;;;;;;10.67;6.30;;;;;;;0.77;nan;97246.28;6235685;28;20239;-62
2023/01/20 10:59:58;;;;;;;9.87;6.20;;;;;;;0.77;nan;97247.13;6235191;28;20238;-63
2023/01/20 11:03:04;;;;;;;8.77;6.00;;;;;;;0.90;nan;97248.19;6241231;28;20234;-62
2023/01/20 11:06:15;;;;;;;6.67;5.80;;;;;;;0.91;nan;97244.66;6238347;28;20250;-63
2023/01/20 11:09:33;;;;;;;7.33;5.50;;;;;;;1.12;nan;97250.56;6234664;28;20310;-62
2023/01/20 11:12:40;;;;;;;9.60;5.83;;;;;;;1.34;nan;97255.53;6233894;28;20631;-63
2023/01/20 11:15:49;;;;;;;8.63;5.67;;;;;;;1.20;nan;97237.22;6239954;28;20240;-63
2023/01/20 11:19:04;;;;;;;10.30;6.47;;;;;;;1.16;nan;97236.53;6237199;28;20239;-63
2023/01/20 11:22:19;;;;;;;11.40;7.17;;;;;;;1.35;nan;97258.06;6233003;28;20235;-62
2023/01/20 11:25:25;;;;;;;8.03;5.50;;;;;;;1.17;nan;97237.38;6220954;28;20240;-62
2023/01/20 11:28:44;;;;;;;8.60;5.90;;;;;;;1.23;nan;97224.91;6236289;28;20390;-62
2023/01/20 11:31:48;;;;;;;8.10;6.13;;;;;;;1.47;nan;97222.81;6226146;28;20231;-62
2023/01/20 11:34:54;;;;;;;9.27;6.40;;;;;;;1.50;nan;97224.44;6236360;28;20235;-63
2023/01/20 11:37:56;;;;;;;7.73;5.50;;;;;;;1.43;nan;97235.13;6233068;28;20235;-63
2023/01/20 11:40:59;;;;;;;10.97;5.67;;;;;;;1.50;nan;97224.44;6239483;28;20216;-63
2023/01/20 11:44:05;;;;;;;8.83;6.23;;;;;;;1.74;nan;97216.19;6243854;28;20231;-63
2023/01/20 11:47:29;;;;;;;9.07;6.40;;;;;;;1.36;nan;97218.16;6239857;28;20232;-62
2023/01/20 11:50:34;;;;;;;9.77;6.30;;;;;;;1.37;nan;97225.06;6222702;28;20412;-63
2023/01/20 11:53:37;;;;;;;8.53;5.93;;;;;;;1.59;nan;97224.78;6243563;28;20227;-63
2023/01/20 11:56:41;;;;;;;8.53;6.23;;;;;;;1.73;nan;97221.44;6223400;28;20228;-62
2023/01/20 11:59:48;;;;;;;8.80;6.57;;;;;;;1.74;nan;97228.34;6238918;28;20352;-63
2023/01/20 12:03:13;;;;;;;9.93;6.93;;;;;;;1.48;nan;97237.50;6241119;28;20229;-63
2023/01/20 12:06:27;;;;;;;12.10;6.97;;;;;;;1.50;nan;97234.81;6243373;28;20243;-62
2023/01/20 12:09:36;;;;;;;10.27;6.80;;;;;;;1.62;nan;97219.41;6239467;28;20220;-62
2023/01/20 12:12:44;;;;;;;9.83;7.47;;;;;;;1.42;nan;97225.63;6244360;28;20590;-62
2023/01/20 12:15:51;;;;;;;9.70;6.80;;;;;;;1.27;nan;97223.84;6243122;28;20223;-62
2023/01/20 12:19:02;;;;;;;9.53;6.47;;;;;;;1.11;nan;97223.75;6234464;28;20220;-62
2023/01/20 12:22:15;;;;;;;9.03;6.77;;;;;;;1.10;nan;97219.47;6239182;28;20730;-62
2023/01/20 12:25:21;;;;;;;9.70;7.40;;;;;;;1.24;nan;97223.97;6238204;28;20239;-63
2023/01/20 12:28:40;;;;;;;12.53;7.43;;;;;;;1.35;nan;97221.69;6236124;28;20265;-63
2023/01/20 12:31:47;;;;;;;9.07;6.83;;;;;;;1.18;nan;97229.50;6239800;28;20242;-62
2023/01/20 12:34:53;;;;;;;8.17;6.47;;;;;;;1.08;nan;97233.47;6223788;28;20314;-62
2023/01/20 12:38:02;;;;;;;9.43;6.63;;;;;;;1.11;nan;97231.53;6237863;28;20541;-63
2023/01/20 12:41:16;;;;;;;9.87;6.50;;;;;;;0.97;nan;97222.78;6237092;28;20227;-62
2023/01/20 12:44:40;;;;;;;10.03;7.17;;;;;;;0.97;nan;97230.56;6242559;28;20242;-62
2023/01/20 12:48:12;;;;;;;9.53;6.37;;;;;;;0.84;nan;97217.31;6240611;28;20420;-63
2023/01/20 12:51:53;;;;;;;9.23;6.90;;;;;;;0.83;nan;97232.97;6222693;28;20238;-63
2023/01/20 12:55:16;;;;;;;9.77;6.70;;;;;;;0.69;nan;97237.09;6239228;28;20223;-63
2023/01/20 12:58:43;;;;;;;8.27;6.80;;;;;;;0.52;nan;97226.66;6239005;28;20235;-62
2023/01/20 13:01:59;;;;;;;8.97;6.83;;;;;;;0.47;nan;97226.06;6238935;28;20227;-62
2023/01/20 13:05:10;;;;;;;7.97;6.40;;;;;;;0.55;nan;97216.16;6237439;28;20243;-62
2023/01/20 13:08:31;;;;;;;9.07;6.40;;;;;;;0.59;nan;97217.69;6241547;28;20246;-64
2023/01/20 13:12:02;;;;;;;8.33;6.17;;;;;;;0.59;nan;97207.31;6237865;28;20231;-61
2023/01/20 13:15:29;;;;;;;10.47;7.40;;;;;;;0.51;nan;97213.75;6239422;28;20373;-63
2023/01/20 13:19:12;;;;;;;12.10;7.23;;;;;;;0.33;nan;97205.94;6239897;28;20239;-63
2023/01/20 13:22:20;;;;;;;11.73;7.20;;;;;;;0.53;nan;97211.94;6236571;28;20237;-62
2023/01/20 13:25:23;;;;;;;10.13;6.43;;;;;;;0.55;nan;97217.91;6241856;28;20246;-62
2023/01/20 13:28:28;;;;;;;11.33;7.30;;;;;;;0.56;nan;97225.63;6238127;28;20238;-62
2023/01/20 13:31:42;;;;;;;11.03;8.37;;;;;;;0.50;nan;97220.69;6216875;28;20220;-62
2023/01/20 13:34:44;;;;;;;14.43;8.83;;;;;;;0.41;nan;97225.50;6237520;28;20239;-63
2023/01/20 13:37:55;;;;;;;11.23;8.43;;;;;;;0.48;nan;97222.56;6238777;28;20230;-63
2023/01/20 13:41:02;;;;;;;10.70;8.20;;;;;;;0.38;nan;97231.69;6237605;28;20231;-62
2023/01/20 13:44:25;;;;;;;10.00;8.30;;;;;;;0.38;nan;97226.50;6240232;28;20239;-63
2023/01/20 13:47:47;;;;;;;12.60;8.77;;;;;;;0.31;nan;97223.31;6222019;28;20251;-62
2023/01/20 13:50:50;;;;;;;12.47;9.07;;;;;;;0.36;nan;97233.50;6202702;28;20579;-63
2023/01/20 13:53:53;;;;;;;16.07;9.97;;;;;;;0.42;nan;97237.56;6240439;28;20258;-63
2023/01/20 13:57:23;;;;;;;13.80;9.93;;;;;;;0.36;nan;97249.06;6238101;28;20730;-63
2023/01/20 14:00:26;;;;;;;15.87;9.50;;;;;;;0.22;nan;97252.31;6218161;28;20243;-63
2023/01/20 14:03:30;;;;;;;14.53;9.67;;;;;;;0.16;nan;97247.41;6240052;28;20220;-63
2023/01/20 14:06:34;;;;;;;14.87;9.20;;;;;;;0.14;nan;97248.38;6239957;28;20326;-63
2023/01/20 14:09:38;;;;;;;17.60;9.83;;;;;;;0.21;nan;97254.97;6236541;28;20259;-63
2023/01/20 14:12:41;;;;;;;14.73;9.90;;;;;;;0.27;nan;97246.91;6242928;28;20632;-62
2023/01/20 14:15:48;;;;;;;15.57;8.80;;;;;;;0.16;nan;97269.91;6221745;28;20233;-62
2023/01/20 14:18:56;;;;;;;13.63;8.67;;;;;;;0.03;nan;97266.19;6237976;28;20294;-63
2023/01/20 14:22:16;;;;;;;13.93;8.53;;;;;;;-0.03;nan;97265.56;6239766;28;20668;-63
2023/01/20 14:25:25;;;;;;;12.30;9.10;;;;;;;-0.04;nan;97266.47;6238000;28;20230;-64
2023/01/20 14:28:28;;;;;;;14.27;8.57;;;;;;;-0.06;nan;97278.66;6231966;28;20236;-63
2023/01/20 14:31:40;;;;;;;12.47;8.77;;;;;;;-0.07;nan;97278.72;6219581;28;20235;-63
2023/01/20 14:34:46;;;;;;;12.50;8.47;;;;;;;-0.12;nan;97284.13;6240431;28;20235;-62
2023/01/20 14:37:50;;;;;;;13.80;9.23;;;;;;;-0.18;nan;97289.56;6234449;28;20251;-64
2023/01/20 14:40:52;;;;;;;15.43;9.30;;;;;;;-0.20;nan;97281.00;6235945;28;20238;-63
2023/01/20 14:43:55;;;;;;;15.97;10.03;;;;;;;-0.19;nan;97281.84;6238874;28;20571;-64
2023/01/20 14:47:01;;;;;;;15.97;9.77;;;;;;;-0.24;nan;97296.78;6215487;28;20230;-62
2023/01/20 14:50:11;;;;;;;15.20;11.07;;;;;;;-0.27;nan;97291.72;6242803;28;20793;-63
2023/01/20 14:53:17;;;;;;;16.07;11.13;;;;;;;-0.27;nan;97294.31;6199494;28;20374;-62
2023/01/20 14:56:25;;;;;;;17.50;11.00;;;;;;;-0.30;nan;97289.28;6241216;28;20227;-62
2023/01/20 14:59:27;;;;;;;15.80;11.10;;;;;;;-0.32;nan;97297.13;6238493;28;20232;-62
2023/01/20 15:02:32;;;;;;;14.53;10.97;;;;;;;-0.39;nan;97303.44;6221257;28;20258;-62